Portada
METAR-TAF:

METAR-TAF

Aeroports :

Aeroport Internacional de Hong Kong

Hong Kong, Xina

latitud: 22-19N, longitud: 113-55E, altitud: 9 m

Observació

L'informe es va fer fa 44 minuts, a les 00:00 UTC
Vent 17 kt del Est
Temperatura 26°C
Humitat 65%
Pressió 1019 hPa
Visibilitat 10 km o més
Escasses núvols a una alçada de 2200 ft

METAR: VHHH 200000Z 09017KT 9999 FEW022 26/19 Q1019 NOSIG

Hora: 08:44 (00:44 UTC)

Pronòstic

L'informe es va fer fa 1 hora i 44 minuts, a les 23:00 UTC
Pronòstic vàlid del 20 a les 00 UTC al 21 a les 06 UTC
Vent 15 kt del Est
Visibilitat 10 km o més
Escasses núvols a una alçada de 2500 ft
Núvols disperses a una alçada de 3500 ft

TAF: VHHH 192300Z 2000/2106 09015KT 9999 FEW025 SCT035 TX29/2006Z TX29/2106Z TN24/2022Z

Observacions i pronòstics meteorològics de més de 4000 aeroports (METAR i TAF).

Les estacions disponibles són els punts grocs i vermells al mapa.

Posi el ratolí al punt desitjat per veure el nom de l'estació.

Feu clic per veure les observacions i els pronòstics meteorològics.

Per canviar el mapa: feu clic els botons verds amb una creu de color negre per apropar; al botó verd amb un guió per allunyar la imatge; o en les fletxes verdes per a mapes adjacents.


METAR-TAF: